Time;durP1;ratioP1;P1;durP2;ratioP2;P2;SDS_P1;SDS_P2;PMS_P1;PMS_P2;Temp;Humidity;BMP_temperature;BMP_pressure;BME280_temperature;BME280_humidity;BME280_pressure;Samples;Min_cycle;Max_cycle;Signal;HPM_P1;HPM_P2
2022/03/06 00:00:09;;;;;;;90.88;42.10;;;2.70;99.90;;;;;;5035830;28;20080;-75
2022/03/06 00:02:36;;;;;;;95.32;41.95;;;2.70;99.90;;;;;;5035850;28;20033;-75
2022/03/06 00:05:02;;;;;;;100.30;41.60;;;2.70;99.90;;;;;;5035877;28;20045;-75
2022/03/06 00:07:28;;;;;;;94.57;43.60;;;2.70;99.90;;;;;;5035480;28;20072;-74
2022/03/06 00:09:54;;;;;;;100.75;46.60;;;2.70;99.90;;;;;;5034627;28;20034;-75
2022/03/06 00:12:20;;;;;;;97.93;43.80;;;2.60;99.90;;;;;;5035749;28;20101;-75
2022/03/06 00:14:45;;;;;;;91.03;43.45;;;2.50;99.90;;;;;;5035586;28;20030;-75
2022/03/06 00:17:11;;;;;;;89.70;40.05;;;2.40;99.90;;;;;;5035007;28;20342;-75
2022/03/06 00:19:37;;;;;;;92.18;43.60;;;2.30;99.90;;;;;;5035641;28;20028;-75
2022/03/06 00:22:04;;;;;;;82.75;40.00;;;2.30;99.90;;;;;;5035461;28;20033;-74
2022/03/06 00:24:29;;;;;;;87.03;41.03;;;2.20;99.90;;;;;;5035279;28;20038;-74
2022/03/06 00:26:55;;;;;;;97.63;44.80;;;2.00;99.90;;;;;;5035601;28;20029;-74
2022/03/06 00:29:21;;;;;;;91.25;44.42;;;2.00;99.90;;;;;;5035124;28;20048;-75
2022/03/06 00:31:47;;;;;;;97.72;43.45;;;2.00;99.90;;;;;;5035120;28;20029;-76
2022/03/06 00:34:13;;;;;;;100.70;46.72;;;2.00;99.90;;;;;;5035520;28;20031;-75
2022/03/06 00:36:39;;;;;;;104.63;47.45;;;1.90;99.90;;;;;;5034885;28;20063;-75
2022/03/06 00:39:06;;;;;;;107.70;46.40;;;1.70;99.90;;;;;;5035159;28;20051;-76
2022/03/06 00:41:32;;;;;;;105.63;48.00;;;1.80;99.90;;;;;;5035435;28;20460;-75
2022/03/06 00:43:59;;;;;;;103.60;49.25;;;1.60;99.90;;;;;;5034680;28;20073;-75
2022/03/06 00:46:25;;;;;;;102.93;49.70;;;1.60;99.90;;;;;;5034827;28;20061;-75
2022/03/06 00:48:50;;;;;;;106.30;48.25;;;1.60;99.90;;;;;;5035208;28;20044;-76
2022/03/06 00:51:16;;;;;;;110.53;50.25;;;1.60;99.90;;;;;;5034589;28;20029;-75
2022/03/06 00:53:43;;;;;;;110.90;51.08;;;1.60;99.90;;;;;;5035009;28;20461;-75
2022/03/06 00:56:09;;;;;;;111.65;52.47;;;1.60;99.90;;;;;;5034689;28;20025;-75
2022/03/06 00:58:35;;;;;;;105.45;48.05;;;1.50;99.90;;;;;;5034863;28;20076;-76
2022/03/06 01:01:01;;;;;;;109.72;50.08;;;1.50;99.90;;;;;;5034837;28;20027;-75
2022/03/06 01:03:27;;;;;;;114.13;49.88;;;1.50;99.90;;;;;;5034703;28;20052;-75
2022/03/06 01:05:53;;;;;;;107.93;48.60;;;1.50;99.90;;;;;;5034564;28;20025;-75
2022/03/06 01:08:19;;;;;;;112.75;49.65;;;1.50;99.90;;;;;;5034400;28;20447;-75
2022/03/06 01:10:47;;;;;;;102.93;48.90;;;1.50;99.90;;;;;;5034565;28;20022;-76
2022/03/06 01:13:14;;;;;;;105.32;48.35;;;1.60;99.90;;;;;;5034813;28;20155;-75
2022/03/06 01:15:40;;;;;;;105.65;51.03;;;1.60;99.90;;;;;;5033288;28;20022;-74
2022/03/06 01:18:06;;;;;;;111.15;51.53;;;1.70;99.90;;;;;;5034355;28;20040;-75
2022/03/06 01:20:36;;;;;;;112.38;49.75;;;1.70;99.90;;;;;;5034179;28;20033;-75
2022/03/06 01:23:02;;;;;;;109.00;51.40;;;1.70;99.90;;;;;;5034233;28;20026;-76
2022/03/06 01:25:28;;;;;;;104.93;49.83;;;1.70;99.90;;;;;;5034240;28;20022;-75
2022/03/06 01:27:54;;;;;;;107.72;48.55;;;1.80;99.90;;;;;;5034099;28;20045;-75
2022/03/06 01:30:21;;;;;;;110.45;48.63;;;1.80;99.90;;;;;;5033944;28;20045;-75
2022/03/06 01:32:48;;;;;;;97.88;45.90;;;1.90;99.90;;;;;;5034454;28;20102;-76
2022/03/06 01:35:14;;;;;;;89.32;43.28;;;1.90;99.90;;;;;;5034198;28;20119;-75
2022/03/06 01:37:40;;;;;;;92.78;46.22;;;2.00;99.90;;;;;;5034100;28;20113;-74
2022/03/06 01:40:07;;;;;;;86.60;42.50;;;2.10;99.90;;;;;;5033718;28;20391;-75
2022/03/06 01:42:33;;;;;;;88.75;43.28;;;2.20;99.90;;;;;;5034339;28;20033;-75
2022/03/06 01:44:59;;;;;;;89.25;43.30;;;2.30;99.90;;;;;;5033937;28;20029;-75
2022/03/06 01:47:46;;;;;;;85.95;42.30;;;2.30;99.90;;;;;;5034158;28;20460;-75
2022/03/06 01:50:18;;;;;;;86.97;42.40;;;2.50;99.90;;;;;;5034014;28;20105;-75
2022/03/06 01:52:45;;;;;;;83.35;42.45;;;2.50;99.90;;;;;;5033539;28;20033;-75
2022/03/06 01:55:13;;;;;;;87.00;42.83;;;2.60;99.90;;;;;;5034003;28;20040;-75
2022/03/06 01:57:40;;;;;;;81.38;41.83;;;2.60;99.90;;;;;;5033810;28;20037;-75
2022/03/06 02:00:10;;;;;;;78.10;39.63;;;2.70;99.90;;;;;;5034062;28;20031;-75
2022/03/06 02:02:36;;;;;;;76.05;40.17;;;2.70;99.90;;;;;;5033732;28;20048;-76
2022/03/06 02:05:03;;;;;;;88.47;48.22;;;2.70;99.90;;;;;;5033916;28;20072;-76
2022/03/06 02:07:28;;;;;;;77.05;38.88;;;2.80;99.90;;;;;;5032423;28;20061;-75
2022/03/06 02:09:54;;;;;;;77.57;39.47;;;2.80;99.90;;;;;;5033769;28;20087;-75
2022/03/06 02:12:23;;;;;;;83.57;40.85;;;2.80;99.90;;;;;;5033520;28;20030;-75
2022/03/06 02:14:57;;;;;;;80.43;39.47;;;2.80;99.90;;;;;;5033820;28;20044;-75
2022/03/06 02:17:24;;;;;;;75.60;38.97;;;2.80;99.90;;;;;;5032230;28;20076;-75
2022/03/06 02:20:03;;;;;;;84.80;41.10;;;2.80;99.90;;;;;;5033940;28;20029;-76
2022/03/06 02:22:34;;;;;;;79.80;39.60;;;2.90;99.90;;;;;;5033431;28;20028;-76
2022/03/06 02:25:04;;;;;;;76.93;40.30;;;2.90;99.90;;;;;;5032365;28;20022;-75
2022/03/06 02:27:29;;;;;;;86.38;42.72;;;2.90;99.90;;;;;;5033141;28;20635;-75
2022/03/06 02:29:55;;;;;;;77.38;40.63;;;2.90;99.90;;;;;;5033686;28;20136;-75
2022/03/06 02:32:22;;;;;;;85.85;40.65;;;2.90;99.90;;;;;;5033283;28;20483;-75
2022/03/06 02:34:50;;;;;;;79.22;40.00;;;2.90;99.90;;;;;;5032127;28;20029;-75
2022/03/06 02:37:19;;;;;;;78.75;40.47;;;2.90;99.90;;;;;;5033204;28;20029;-76
2022/03/06 02:39:45;;;;;;;80.07;41.10;;;3.00;99.90;;;;;;5033608;28;20112;-75
2022/03/06 02:42:29;;;;;;;75.75;39.65;;;3.00;99.90;;;;;;5037381;28;20021;-75
2022/03/06 02:44:55;;;;;;;78.00;39.40;;;3.00;99.90;;;;;;5037724;28;20079;-75
2022/03/06 02:47:21;;;;;;;77.13;38.70;;;3.00;99.90;;;;;;5037885;28;20033;-76
2022/03/06 02:49:48;;;;;;;78.70;40.03;;;3.00;99.90;;;;;;5035888;28;20427;-76
2022/03/06 02:52:14;;;;;;;79.53;38.88;;;3.00;99.90;;;;;;5037218;28;20051;-74
2022/03/06 02:54:40;;;;;;;69.32;38.42;;;3.00;99.90;;;;;;5037031;28;20468;-76
2022/03/06 02:57:07;;;;;;;82.20;39.38;;;3.00;99.90;;;;;;5037024;28;20091;-75
2022/03/06 02:59:33;;;;;;;76.82;39.15;;;3.00;99.90;;;;;;5037143;28;20087;-77
2022/03/06 03:01:59;;;;;;;79.25;39.20;;;3.00;99.90;;;;;;5036972;28;20446;-76
2022/03/06 03:04:25;;;;;;;76.03;39.85;;;3.00;99.90;;;;;;5036857;28;20037;-76
2022/03/06 03:06:52;;;;;;;75.47;38.95;;;3.00;99.90;;;;;;5036987;28;20468;-76
2022/03/06 03:09:19;;;;;;;69.82;37.65;;;2.90;99.90;;;;;;5036789;28;20080;-75
2022/03/06 03:11:47;;;;;;;77.72;40.85;;;2.90;99.90;;;;;;5036687;28;20388;-75
2022/03/06 03:14:14;;;;;;;82.60;41.03;;;2.90;99.90;;;;;;5036633;28;20026;-75
2022/03/06 03:16:40;;;;;;;78.97;40.58;;;2.90;99.90;;;;;;5036735;28;20468;-75
2022/03/06 03:19:06;;;;;;;82.13;41.28;;;2.80;99.90;;;;;;5036775;28;20040;-76
2022/03/06 03:21:32;;;;;;;86.43;42.47;;;2.80;99.90;;;;;;5036469;28;20025;-76
2022/03/06 03:23:58;;;;;;;82.80;41.70;;;2.90;99.90;;;;;;5035267;28;20026;-75
2022/03/06 03:26:25;;;;;;;80.78;41.55;;;2.90;99.90;;;;;;5036757;28;20025;-76
2022/03/06 03:28:50;;;;;;;81.55;41.83;;;2.90;99.90;;;;;;5036505;28;20091;-76
2022/03/06 03:31:17;;;;;;;84.20;43.22;;;2.90;99.90;;;;;;5036595;28;20391;-76
2022/03/06 03:33:42;;;;;;;83.60;42.80;;;2.90;99.90;;;;;;5036255;28;20447;-76
2022/03/06 03:36:10;;;;;;;82.28;40.45;;;2.90;99.90;;;;;;5035281;28;20060;-75
2022/03/06 03:38:38;;;;;;;78.93;40.53;;;2.80;99.90;;;;;;5036340;28;20040;-76
2022/03/06 03:41:04;;;;;;;82.40;41.55;;;2.80;99.90;;;;;;5036638;28;20060;-75
2022/03/06 03:43:30;;;;;;;81.15;40.42;;;2.80;99.90;;;;;;5036204;28;20053;-76
2022/03/06 03:45:58;;;;;;;79.53;40.08;;;2.70;99.90;;;;;;5036423;28;20428;-75
2022/03/06 03:48:25;;;;;;;82.00;41.85;;;2.60;99.90;;;;;;5036035;28;20400;-76
2022/03/06 03:50:52;;;;;;;82.57;40.33;;;2.70;99.90;;;;;;5034846;28;20053;-76
2022/03/06 03:53:19;;;;;;;88.57;42.67;;;2.70;99.90;;;;;;5035989;28;20021;-76
2022/03/06 03:55:45;;;;;;;80.65;39.13;;;2.80;99.90;;;;;;5036124;28;20076;-76
2022/03/06 03:58:11;;;;;;;80.47;40.33;;;2.70;99.90;;;;;;5035686;28;20037;-76
2022/03/06 04:00:37;;;;;;;80.65;41.15;;;2.70;99.90;;;;;;5036144;28;20025;-76
2022/03/06 04:03:02;;;;;;;83.22;40.45;;;2.70;99.90;;;;;;5034698;28;20443;-75
2022/03/06 04:05:28;;;;;;;80.85;40.97;;;2.60;99.90;;;;;;5035554;28;20025;-76
2022/03/06 04:07:54;;;;;;;81.78;41.13;;;2.60;99.90;;;;;;5035667;28;20116;-76
2022/03/06 04:10:20;;;;;;;80.88;40.88;;;2.60;99.90;;;;;;5035649;28;20392;-76
2022/03/06 04:12:46;;;;;;;85.13;43.60;;;2.70;99.90;;;;;;5035661;28;20380;-76
2022/03/06 04:15:12;;;;;;;76.53;39.05;;;2.70;99.90;;;;;;5035896;28;20025;-76
2022/03/06 04:17:37;;;;;;;83.82;41.75;;;2.70;99.90;;;;;;5034231;28;20112;-75
2022/03/06 04:20:04;;;;;;;80.88;40.83;;;2.70;99.90;;;;;;5035244;28;20096;-75
2022/03/06 04:22:30;;;;;;;77.63;39.88;;;2.70;99.90;;;;;;5035486;28;20049;-75
2022/03/06 04:24:56;;;;;;;75.20;38.65;;;2.70;99.90;;;;;;5035402;28;20118;-76
2022/03/06 04:27:22;;;;;;;74.43;40.85;;;2.60;99.90;;;;;;5035087;28;20112;-75
2022/03/06 04:29:47;;;;;;;73.55;37.90;;;2.60;99.90;;;;;;5035103;28;20049;-76
2022/03/06 04:32:13;;;;;;;77.30;38.30;;;2.60;99.90;;;;;;5034341;28;20025;-75
2022/03/06 04:34:39;;;;;;;83.05;43.10;;;2.50;99.90;;;;;;5035524;28;20449;-76
2022/03/06 04:37:06;;;;;;;86.53;43.58;;;2.40;99.90;;;;;;5035291;28;20457;-75
2022/03/06 04:39:31;;;;;;;80.80;40.67;;;2.40;99.90;;;;;;5035100;28;20120;-74
2022/03/06 04:41:57;;;;;;;87.30;41.47;;;2.40;99.90;;;;;;5033803;28;20451;-75
2022/03/06 04:44:23;;;;;;;84.15;42.88;;;2.30;99.90;;;;;;5045421;28;20371;-75
2022/03/06 04:46:49;;;;;;;85.68;41.00;;;2.40;99.90;;;;;;5051069;28;20090;-76
2022/03/06 04:49:15;;;;;;;93.03;45.83;;;2.30;99.90;;;;;;5053199;28;20032;-75
2022/03/06 04:51:41;;;;;;;90.57;45.88;;;2.30;99.90;;;;;;5053891;28;20467;-74
2022/03/06 04:54:07;;;;;;;87.00;43.30;;;2.20;99.90;;;;;;5053647;28;20021;-75
2022/03/06 04:56:34;;;;;;;87.68;42.53;;;2.10;99.90;;;;;;5053484;28;20021;-75
2022/03/06 04:59:00;;;;;;;91.03;49.03;;;2.00;99.90;;;;;;5053444;28;20040;-74
2022/03/06 05:01:25;;;;;;;91.47;45.70;;;2.00;99.90;;;;;;5053157;28;20070;-73
2022/03/06 05:03:51;;;;;;;83.45;42.08;;;2.00;99.90;;;;;;5052955;28;20056;-75
2022/03/06 05:06:17;;;;;;;90.57;43.83;;;2.00;99.90;;;;;;5053590;28;20020;-74
2022/03/06 05:08:43;;;;;;;91.47;44.88;;;1.90;99.90;;;;;;5052917;28;20099;-74
2022/03/06 05:11:09;;;;;;;92.90;45.20;;;1.90;99.90;;;;;;5052953;28;20459;-74
2022/03/06 05:13:34;;;;;;;99.90;46.35;;;1.90;99.90;;;;;;5053385;28;20021;-75
2022/03/06 05:16:00;;;;;;;98.85;46.60;;;1.90;99.90;;;;;;5053063;28;20029;-74
2022/03/06 05:18:26;;;;;;;97.10;48.00;;;1.90;99.90;;;;;;5052631;28;20044;-73
2022/03/06 05:20:52;;;;;;;96.25;48.60;;;1.90;99.90;;;;;;5053134;28;20031;-72
2022/03/06 05:23:18;;;;;;;97.93;47.47;;;1.80;99.90;;;;;;5052664;28;20041;-74
2022/03/06 05:25:45;;;;;;;100.72;48.22;;;1.80;99.90;;;;;;5052844;28;20029;-73
2022/03/06 05:28:11;;;;;;;106.50;50.03;;;1.80;99.90;;;;;;5053013;28;20037;-74
2022/03/06 05:30:37;;;;;;;102.93;49.08;;;1.80;99.90;;;;;;5052179;28;20052;-73
2022/03/06 05:33:04;;;;;;;111.28;50.05;;;1.70;99.90;;;;;;5052795;28;20380;-74
2022/03/06 05:35:30;;;;;;;118.70;52.83;;;1.80;99.90;;;;;;5050156;28;20471;-74
2022/03/06 05:37:56;;;;;;;111.05;50.97;;;1.70;99.90;;;;;;5052111;28;20040;-73
2022/03/06 05:40:21;;;;;;;119.60;53.58;;;1.70;99.90;;;;;;5052463;28;20025;-73
2022/03/06 05:42:48;;;;;;;129.50;57.15;;;1.70;99.90;;;;;;5052825;28;20025;-73
2022/03/06 05:45:14;;;;;;;133.35;59.20;;;1.60;99.90;;;;;;5052193;28;20410;-73
2022/03/06 05:47:40;;;;;;;127.70;56.00;;;1.60;99.90;;;;;;5052634;28;20035;-73
2022/03/06 05:50:07;;;;;;;129.45;57.53;;;1.60;99.90;;;;;;5052121;28;20036;-73
2022/03/06 05:52:33;;;;;;;119.75;54.05;;;1.60;99.90;;;;;;5052858;28;20452;-74
2022/03/06 05:54:59;;;;;;;120.30;53.03;;;1.60;99.90;;;;;;5052490;28;20029;-73
2022/03/06 05:57:25;;;;;;;126.78;56.10;;;1.60;99.90;;;;;;5051911;28;20036;-74
2022/03/06 05:59:52;;;;;;;128.35;56.00;;;1.60;99.90;;;;;;5052591;28;20456;-73
2022/03/06 06:02:19;;;;;;;124.20;54.53;;;1.60;99.90;;;;;;5052097;28;20430;-73
2022/03/06 06:04:45;;;;;;;114.13;52.75;;;1.70;99.90;;;;;;5052071;28;20029;-74
2022/03/06 06:07:12;;;;;;;115.72;52.03;;;1.70;99.90;;;;;;5052462;28;20452;-74
2022/03/06 06:09:37;;;;;;;117.65;54.58;;;1.70;99.90;;;;;;5052330;28;20028;-73
2022/03/06 06:12:04;;;;;;;126.45;56.80;;;1.70;99.90;;;;;;5051869;28;20431;-74
2022/03/06 06:14:30;;;;;;;125.80;54.70;;;1.70;99.90;;;;;;5048317;28;20028;-73
2022/03/06 06:16:55;;;;;;;126.68;57.13;;;1.80;99.90;;;;;;5052253;28;20029;-74
2022/03/06 06:19:21;;;;;;;135.10;63.10;;;1.80;99.90;;;;;;5051764;28;20037;-73
2022/03/06 06:21:47;;;;;;;135.25;58.97;;;1.70;99.90;;;;;;5051776;28;20013;-72
2022/03/06 06:24:14;;;;;;;126.65;55.95;;;1.80;99.90;;;;;;5052225;28;20036;-74
2022/03/06 06:26:41;;;;;;;124.43;55.22;;;1.70;99.90;;;;;;5052299;28;20096;-74
2022/03/06 06:29:09;;;;;;;122.25;55.42;;;1.70;99.90;;;;;;5051774;28;20048;-73
2022/03/06 06:31:35;;;;;;;116.47;53.90;;;1.70;99.90;;;;;;5052146;28;20014;-74
2022/03/06 06:34:01;;;;;;;117.95;53.65;;;1.60;99.90;;;;;;5051951;28;20029;-75
2022/03/06 06:36:27;;;;;;;129.07;55.80;;;1.60;99.90;;;;;;5051766;28;20056;-73
2022/03/06 06:38:53;;;;;;;136.82;56.83;;;1.60;99.90;;;;;;5051569;28;20468;-74
2022/03/06 06:41:19;;;;;;;146.57;60.35;;;1.60;99.90;;;;;;5052107;28;20021;-73
2022/03/06 06:43:45;;;;;;;187.35;78.22;;;1.50;99.90;;;;;;5051915;28;20103;-74
2022/03/06 06:46:11;;;;;;;172.95;72.85;;;1.60;99.90;;;;;;5051951;28;20025;-73
2022/03/06 06:48:37;;;;;;;130.60;56.80;;;1.40;99.90;;;;;;5051943;28;20029;-74
2022/03/06 06:51:04;;;;;;;157.88;63.55;;;1.40;99.90;;;;;;5051877;28;20040;-72
2022/03/06 06:53:30;;;;;;;129.57;56.78;;;1.40;99.90;;;;;;5051745;28;20031;-73
2022/03/06 06:55:55;;;;;;;144.70;62.63;;;1.40;99.90;;;;;;5051215;28;20110;-72
2022/03/06 06:58:21;;;;;;;138.85;57.20;;;1.30;99.90;;;;;;5051572;28;20052;-73
2022/03/06 07:00:47;;;;;;;187.43;79.47;;;1.30;99.90;;;;;;5051447;28;20025;-74
2022/03/06 07:03:13;;;;;;;142.80;60.85;;;1.30;99.90;;;;;;5051741;28;20021;-73
2022/03/06 07:05:39;;;;;;;191.82;92.75;;;1.20;99.90;;;;;;5051527;28;20024;-71
2022/03/06 07:08:05;;;;;;;125.18;55.58;;;1.20;99.90;;;;;;5051490;28;20098;-73
2022/03/06 07:10:31;;;;;;;117.63;55.13;;;1.20;99.90;;;;;;5051371;28;20029;-73
2022/03/06 07:12:58;;;;;;;124.90;53.80;;;1.20;99.90;;;;;;5051494;28;20095;-72
2022/03/06 07:15:32;;;;;;;121.75;55.13;;;1.10;99.90;;;;;;5051264;28;20416;-71
2022/03/06 07:18:02;;;;;;;130.48;57.58;;;1.10;99.90;;;;;;5049762;28;20040;-73
2022/03/06 07:20:28;;;;;;;127.38;56.92;;;1.10;99.90;;;;;;5051651;28;20475;-72
2022/03/06 07:22:55;;;;;;;144.63;63.15;;;1.20;99.90;;;;;;5051412;28;20109;-73
2022/03/06 07:25:21;;;;;;;136.77;58.63;;;1.10;99.90;;;;;;5051647;28;20100;-73
2022/03/06 07:27:47;;;;;;;209.65;88.85;;;1.10;99.90;;;;;;5055027;28;20020;-74
2022/03/06 07:30:14;;;;;;;147.57;66.25;;;1.10;99.90;;;;;;5055874;28;20122;-73
2022/03/06 07:32:47;;;;;;;141.00;61.35;;;1.10;99.90;;;;;;5056547;28;20032;-73
2022/03/06 07:35:15;;;;;;;245.15;99.47;;;1.20;99.90;;;;;;5055542;28;20379;-73
2022/03/06 07:37:41;;;;;;;136.68;60.30;;;1.20;99.90;;;;;;5056422;28;20029;-73
2022/03/06 07:40:08;;;;;;;147.07;62.38;;;1.20;99.90;;;;;;5056320;28;20032;-73
2022/03/06 07:42:34;;;;;;;141.48;59.97;;;1.30;99.90;;;;;;5056201;28;20025;-74
2022/03/06 07:45:00;;;;;;;491.98;216.20;;;1.30;99.90;;;;;;5056049;28;20409;-73
2022/03/06 07:47:26;;;;;;;143.23;66.65;;;1.30;99.90;;;;;;5056115;28;20021;-73
2022/03/06 07:49:52;;;;;;;250.30;96.05;;;1.40;99.90;;;;;;5054556;28;20032;-75
2022/03/06 07:52:18;;;;;;;218.68;90.43;;;1.50;99.90;;;;;;5054234;28;20021;-75
2022/03/06 07:54:44;;;;;;;126.40;58.40;;;1.50;99.90;;;;;;5053829;28;20070;-74
2022/03/06 07:57:10;;;;;;;117.45;55.47;;;1.50;99.90;;;;;;5055486;28;20484;-74
2022/03/06 07:59:36;;;;;;;129.98;56.80;;;1.60;99.90;;;;;;5055485;28;20059;-74
2022/03/06 08:02:02;;;;;;;125.32;60.13;;;1.50;99.90;;;;;;5056006;28;20456;-75
2022/03/06 08:04:28;;;;;;;128.63;57.30;;;1.50;99.90;;;;;;5055679;28;20028;-75
2022/03/06 08:06:54;;;;;;;135.63;60.47;;;1.40;99.90;;;;;;5055501;28;20029;-74
2022/03/06 08:09:20;;;;;;;125.05;55.95;;;1.50;99.90;;;;;;5055537;28;20056;-74
2022/03/06 08:11:46;;;;;;;138.07;61.38;;;1.40;99.90;;;;;;5055348;28;20064;-74
2022/03/06 08:14:12;;;;;;;161.23;75.00;;;1.50;99.90;;;;;;5055612;28;20506;-73
2022/03/06 08:16:38;;;;;;;131.77;60.60;;;1.50;99.90;;;;;;5055688;28;20027;-73
2022/03/06 08:19:05;;;;;;;128.43;57.13;;;1.50;99.90;;;;;;5055427;28;20055;-75
2022/03/06 08:21:31;;;;;;;141.10;61.25;;;1.50;99.90;;;;;;5055848;28;20082;-73
2022/03/06 08:23:57;;;;;;;138.82;65.45;;;1.60;99.90;;;;;;5055396;28;20024;-75
2022/03/06 08:26:23;;;;;;;160.77;77.70;;;1.60;99.90;;;;;;5056004;28;20064;-74
2022/03/06 08:28:49;;;;;;;133.43;63.47;;;1.70;99.90;;;;;;5053463;28;20361;-77
2022/03/06 08:31:16;;;;;;;121.15;56.00;;;1.70;99.90;;;;;;5054952;28;20028;-76
2022/03/06 08:33:42;;;;;;;132.55;65.45;;;1.80;99.90;;;;;;5054821;28;20037;-77
2022/03/06 08:36:08;;;;;;;122.68;61.80;;;1.80;99.90;;;;;;5054230;28;20029;-76
2022/03/06 08:38:34;;;;;;;112.45;61.88;;;1.80;99.90;;;;;;5053261;28;20438;-75
2022/03/06 08:41:00;;;;;;;114.72;61.90;;;1.70;99.90;;;;;;5054560;28;20036;-75
2022/03/06 08:43:25;;;;;;;100.55;51.65;;;1.80;99.90;;;;;;5053278;28;20123;-76
2022/03/06 08:45:51;;;;;;;97.45;48.80;;;1.80;99.90;;;;;;5054194;28;20029;-77
2022/03/06 08:48:17;;;;;;;92.55;43.50;;;1.90;99.90;;;;;;5054607;28;20115;-76
2022/03/06 08:50:43;;;;;;;93.40;45.17;;;1.80;99.90;;;;;;5053208;28;20021;-75
2022/03/06 08:53:09;;;;;;;101.80;47.00;;;1.80;99.90;;;;;;5053995;28;20024;-77
2022/03/06 08:55:35;;;;;;;95.05;46.25;;;1.80;99.90;;;;;;5054268;28;20032;-76
2022/03/06 08:58:01;;;;;;;91.05;44.90;;;1.80;99.90;;;;;;5053875;28;20040;-77
2022/03/06 09:00:26;;;;;;;96.93;46.03;;;1.90;99.90;;;;;;5054119;28;20047;-79
2022/03/06 09:02:52;;;;;;;98.07;47.30;;;1.90;99.90;;;;;;5053937;28;20474;-78
2022/03/06 09:05:20;;;;;;;105.85;50.97;;;1.90;99.90;;;;;;5054227;28;20021;-77
2022/03/06 09:07:46;;;;;;;96.22;44.72;;;2.00;99.90;;;;;;5053727;28;20036;-78
2022/03/06 09:10:13;;;;;;;93.63;47.42;;;1.90;99.90;;;;;;5053780;28;20083;-78
2022/03/06 09:12:39;;;;;;;88.60;47.80;;;1.90;99.90;;;;;;5052771;28;20111;-78
2022/03/06 09:15:06;;;;;;;84.22;42.30;;;1.90;99.90;;;;;;5052280;28;20029;-76
2022/03/06 09:17:33;;;;;;;80.90;40.85;;;1.80;99.90;;;;;;5053977;28;20036;-78
2022/03/06 09:19:58;;;;;;;75.78;39.92;;;1.80;99.90;;;;;;5053126;28;20028;-77
2022/03/06 09:22:24;;;;;;;85.45;41.97;;;1.90;99.90;;;;;;5053665;28;20025;-77
2022/03/06 09:24:50;;;;;;;69.18;34.63;;;1.90;99.90;;;;;;5053511;28;20032;-78
2022/03/06 09:27:16;;;;;;;72.22;36.80;;;1.80;99.90;;;;;;5053473;28;20029;-78
2022/03/06 09:29:42;;;;;;;70.93;36.33;;;1.90;99.90;;;;;;5053278;28;20055;-78
2022/03/06 09:32:08;;;;;;;80.22;38.90;;;1.80;99.90;;;;;;5053394;28;20028;-77
2022/03/06 09:34:34;;;;;;;68.93;33.33;;;1.70;99.90;;;;;;5053474;28;20048;-77
2022/03/06 09:36:59;;;;;;;69.70;35.35;;;1.70;99.90;;;;;;5053521;28;20032;-78
2022/03/06 09:39:25;;;;;;;82.55;40.63;;;1.80;99.90;;;;;;5052128;28;20033;-77
2022/03/06 09:41:55;;;;;;;105.90;50.40;;;1.90;99.90;;;;;;5053129;28;20036;-78
2022/03/06 09:44:24;;;;;;;76.10;38.38;;;1.90;99.90;;;;;;5053772;28;20036;-77
2022/03/06 09:46:55;;;;;;;87.15;45.97;;;1.90;99.90;;;;;;5053238;28;20028;-78
2022/03/06 09:49:23;;;;;;;85.65;44.65;;;2.00;99.90;;;;;;5053425;28;20025;-80
2022/03/06 09:51:49;;;;;;;70.70;38.92;;;1.90;99.90;;;;;;5054279;28;20423;-78
2022/03/06 09:54:16;;;;;;;75.45;38.95;;;1.80;99.90;;;;;;5051610;28;20545;-77
2022/03/06 09:56:43;;;;;;;82.15;44.53;;;1.90;99.90;;;;;;5053786;28;20056;-78
2022/03/06 09:59:10;;;;;;;79.82;43.05;;;1.80;99.90;;;;;;5053729;28;20075;-78
2022/03/06 10:01:36;;;;;;;127.00;56.33;;;1.80;99.90;;;;;;5053888;28;20058;-77
2022/03/06 10:04:23;;;;;;;213.77;94.70;;;1.70;99.90;;;;;;5053398;28;20128;-78
2022/03/06 10:07:08;;;;;;;154.75;64.65;;;1.70;99.90;;;;;;5052103;28;20056;-76
2022/03/06 10:09:45;;;;;;;73.22;38.53;;;1.70;99.90;;;;;;5053308;28;20025;-77
2022/03/06 10:12:28;;;;;;;102.63;53.60;;;1.70;99.90;;;;;;5054145;28;20025;-78
2022/03/06 10:15:02;;;;;;;263.85;109.07;;;1.80;99.90;;;;;;5054086;28;20025;-77
2022/03/06 10:17:30;;;;;;;120.03;53.45;;;1.80;99.90;;;;;;5053557;28;20025;-76
2022/03/06 10:19:59;;;;;;;169.00;76.03;;;1.80;99.90;;;;;;5053804;28;20083;-77
2022/03/06 10:22:28;;;;;;;131.60;61.92;;;1.80;99.90;;;;;;5053614;28;20028;-78
2022/03/06 10:24:57;;;;;;;94.28;45.85;;;1.80;99.90;;;;;;5053423;28;20101;-77
2022/03/06 10:27:45;;;;;;;149.07;60.67;;;1.80;99.90;;;;;;5053603;28;20028;-78
2022/03/06 10:30:37;;;;;;;86.72;45.53;;;1.80;99.90;;;;;;5053475;28;20052;-78
2022/03/06 10:33:17;;;;;;;133.15;53.13;;;1.80;99.90;;;;;;5053559;28;20107;-77
2022/03/06 10:35:45;;;;;;;87.55;41.00;;;1.80;99.90;;;;;;5052300;28;20056;-76
2022/03/06 10:38:21;;;;;;;143.15;67.35;;;1.70;99.90;;;;;;5051955;28;20033;-80
2022/03/06 10:40:48;;;;;;;69.88;36.97;;;1.90;99.90;;;;;;5053668;28;20063;-78
2022/03/06 10:43:22;;;;;;;99.63;46.75;;;1.80;99.90;;;;;;5052239;28;20032;-76
2022/03/06 10:45:51;;;;;;;147.18;53.75;;;1.90;99.90;;;;;;5053020;28;20523;-76
2022/03/06 10:48:17;;;;;;;93.15;41.78;;;1.80;99.90;;;;;;5053727;28;20467;-77
2022/03/06 10:50:43;;;;;;;71.75;35.80;;;1.80;99.90;;;;;;5052113;28;20028;-76
2022/03/06 10:53:19;;;;;;;95.28;44.80;;;1.70;99.90;;;;;;5053473;28;20381;-77
2022/03/06 10:55:47;;;;;;;76.90;38.78;;;1.80;99.90;;;;;;5051930;28;20474;-78
2022/03/06 10:58:13;;;;;;;107.43;53.22;;;1.80;99.90;;;;;;5051522;28;20041;-76
2022/03/06 11:00:40;;;;;;;113.32;54.70;;;1.90;99.90;;;;;;5052709;28;20113;-75
2022/03/06 11:03:07;;;;;;;78.25;40.75;;;1.90;99.90;;;;;;5056997;28;20480;-79
2022/03/06 11:05:34;;;;;;;107.47;52.03;;;1.80;99.90;;;;;;5056909;28;20029;-76
2022/03/06 11:08:03;;;;;;;110.70;57.67;;;1.80;99.90;;;;;;5056951;28;20024;-75
2022/03/06 11:10:29;;;;;;;111.30;54.10;;;1.80;99.90;;;;;;5055596;28;20025;-76
2022/03/06 11:12:56;;;;;;;109.25;51.05;;;1.80;99.90;;;;;;5056734;28;20025;-77
2022/03/06 11:15:23;;;;;;;95.93;46.70;;;1.70;99.90;;;;;;5055721;28;20025;-79
2022/03/06 11:17:49;;;;;;;101.95;49.28;;;1.70;99.90;;;;;;5056403;28;20472;-78
2022/03/06 11:20:15;;;;;;;134.55;64.30;;;1.70;99.90;;;;;;5056512;28;20025;-78
2022/03/06 11:23:13;;;;;;;108.95;54.33;;;1.70;99.90;;;;;;5056138;28;20516;-77
2022/03/06 11:25:50;;;;;;;122.78;64.57;;;1.70;99.90;;;;;;5056869;28;20029;-77
2022/03/06 11:28:39;;;;;;;119.00;59.85;;;1.70;99.90;;;;;;5056198;28;20033;-79
2022/03/06 11:31:05;;;;;;;97.72;45.97;;;1.70;99.90;;;;;;5056382;28;20480;-76
2022/03/06 11:33:31;;;;;;;103.60;49.45;;;1.70;99.90;;;;;;5056271;28;20506;-77
2022/03/06 11:35:57;;;;;;;99.32;48.33;;;1.60;99.90;;;;;;5056350;28;20052;-79
2022/03/06 11:38:39;;;;;;;103.57;52.17;;;1.60;99.90;;;;;;5056191;28;20448;-76
2022/03/06 11:41:10;;;;;;;;;;;1.60;99.90;;;;;;5056239;28;20403;-78
2022/03/06 11:43:44;;;;;;;183.85;80.65;;;1.60;99.90;;;;;;5054541;28;19912;-78
2022/03/06 11:46:21;;;;;;;137.05;72.95;;;1.60;99.90;;;;;;5056529;28;20021;-78
2022/03/06 11:48:47;;;;;;;95.40;45.88;;;1.60;99.90;;;;;;5054651;28;20029;-77
2022/03/06 11:51:19;;;;;;;77.07;40.47;;;1.70;99.90;;;;;;5056064;28;20021;-79
2022/03/06 11:53:45;;;;;;;78.75;40.13;;;1.60;99.90;;;;;;5056039;28;20049;-76
2022/03/06 11:56:31;;;;;;;76.68;36.22;;;1.70;99.90;;;;;;5055555;28;20118;-76
2022/03/06 11:59:22;;;;;;;91.78;45.40;;;1.70;99.90;;;;;;5051604;28;20053;-77
2022/03/06 12:01:54;;;;;;;102.40;45.58;;;1.60;99.90;;;;;;5054520;28;20028;-76
2022/03/06 12:04:21;;;;;;;;;;;1.50;99.90;;;;;;5055162;28;20052;-75
2022/03/06 12:06:57;;;;;;;88.75;43.15;;;1.50;99.90;;;;;;5055564;28;20375;-75
2022/03/06 12:09:24;;;;;;;94.22;45.55;;;1.50;99.90;;;;;;5055579;28;20028;-77
2022/03/06 12:11:52;;;;;;;94.00;48.35;;;1.50;99.90;;;;;;5055254;28;20029;-76
2022/03/06 12:14:27;;;;;;;128.60;62.85;;;1.60;99.90;;;;;;5055352;28;20057;-76
2022/03/06 12:17:02;;;;;;;99.63;50.95;;;1.60;99.90;;;;;;5055195;28;20025;-76
2022/03/06 12:19:31;;;;;;;221.20;94.50;;;1.50;99.90;;;;;;5055520;28;20082;-77
2022/03/06 12:22:28;;;;;;;264.02;103.68;;;1.50;99.90;;;;;;5055036;28;20074;-75
2022/03/06 12:25:06;;;;;;;453.38;171.07;;;1.50;99.90;;;;;;5053358;28;20472;-77
2022/03/06 12:27:33;;;;;;;327.58;137.02;;;1.50;99.90;;;;;;5054966;28;20116;-80
2022/03/06 12:30:04;;;;;;;533.72;202.55;;;1.50;99.90;;;;;;5055054;28;20123;-78
2022/03/06 12:32:32;;;;;;;266.33;108.60;;;1.50;99.90;;;;;;5053967;28;20383;-78
2022/03/06 12:35:04;;;;;;;193.80;81.72;;;1.50;99.90;;;;;;5055220;28;20104;-80